Magor, United Kingdom
Current Conditions -  °F | °C
As of 6:20 AM on Tuesday 21 Oct 2014 (Local Time) from EGGD Reporting Station
Scattered Clouds Scattered Clouds  
Wind Chill: 55°   Ceiling: Unl
Heat Index: 55°   Visibility: 6mi
Dew Point: 52°   Wind: 29mph
Humidity: 88%   Direction: 250°WSW
Pressure: 29.56"   Gusts: 44mph
Location:  51.58°N, 2.83°W
Report Text: EGGD 210520Z 25025G38KT 9999 FEW003 SCT008 13/11 Q1001
Loading
Personal Weather Stations






























Interactive Weather Map
Tropical Storm Tracking
New forecast layout! Learn more

10-Day Weather Forecast

Advertisements
Track Severe Weather on mobile